Time;durP1;ratioP1;P1;durP2;ratioP2;P2;SDS_P1;SDS_P2;PMS_P1;PMS_P2;Temp;Humidity;BMP_temperature;BMP_pressure;BME280_temperature;BME280_humidity;BME280_pressure;Samples;Min_cycle;Max_cycle;Signal;HPM_P1;HPM_P2
2022/06/05 00:02:02;;;;;;;7.87;7.37;;;22.30;56.00;;;;;;20491;6862;311308;-87
2022/06/05 00:04:42;;;;;;;7.80;7.40;;;22.60;55.40;;;;;;20451;6862;308807;-90
2022/06/05 00:07:30;;;;;;;7.70;7.10;;;22.80;54.80;;;;;;20666;6862;117566;-88
2022/06/05 00:10:02;;;;;;;7.30;6.90;;;22.70;55.10;;;;;;20703;6862;117444;-89
2022/06/05 00:12:35;;;;;;;7.57;7.15;;;22.30;55.70;;;;;;20454;6862;313939;-88
2022/06/05 00:15:01;;;;;;;7.60;7.13;;;22.40;55.70;;;;;;20689;6862;117777;-88
2022/06/05 00:17:29;;;;;;;7.77;7.37;;;22.30;55.80;;;;;;20493;6860;310707;-88
2022/06/05 00:19:54;;;;;;;7.80;7.40;;;22.40;55.70;;;;;;20492;6861;309269;-89
2022/06/05 00:22:23;;;;;;;7.93;7.50;;;22.50;55.50;;;;;;20708;6862;117323;-90
2022/06/05 00:24:49;;;;;;;7.70;7.10;;;22.50;56.10;;;;;;20698;6862;117704;-89
2022/06/05 00:27:18;;;;;;;8.37;7.57;;;22.20;56.00;;;;;;20699;6862;120076;-89
2022/06/05 00:30:03;;;;;;;8.38;7.78;;;22.00;56.60;;;;;;20458;6862;339334;-89
2022/06/05 00:32:33;;;;;;;8.23;7.83;;;22.40;55.80;;;;;;20464;6862;279936;-89
2022/06/05 00:34:59;;;;;;;8.40;7.90;;;22.40;55.80;;;;;;20739;6862;120027;-90
2022/06/05 00:38:02;;;;;;;7.63;7.23;;;22.00;56.40;;;;;;20713;6862;121903;-88
2022/06/05 00:40:40;;;;;;;7.93;7.53;;;22.00;56.40;;;;;;20457;6862;280996;-87
2022/06/05 00:43:05;;;;;;;7.80;7.40;;;22.20;56.10;;;;;;20480;6862;309647;-87
2022/06/05 00:45:31;;;;;;;8.67;8.07;;;22.50;55.60;;;;;;20675;6862;119896;-88
2022/06/05 00:47:57;;;;;;;8.15;7.65;;;22.40;55.90;;;;;;20484;6862;279257;-87
2022/06/05 00:50:22;;;;;;;8.37;7.70;;;22.40;55.60;;;;;;20678;6862;118640;-88
2022/06/05 00:52:49;;;;;;;8.05;7.55;;;22.20;55.80;;;;;;20458;6862;279567;-87
2022/06/05 00:55:16;;;;;;;8.00;7.50;;;22.30;55.80;;;;;;20495;6862;312101;-87
2022/06/05 00:57:43;;;;;;;8.03;7.63;;;22.50;55.50;;;;;;20703;6862;116855;-89
2022/06/05 01:00:09;;;;;;;7.70;7.30;;;22.00;56.40;;;;;;20704;6862;117396;-86
2022/06/05 01:02:35;;;;;;;8.25;7.82;;;22.00;56.30;;;;;;20452;6862;309341;-88
2022/06/05 01:05:01;;;;;;;8.50;7.90;;;22.10;56.30;;;;;;20705;6862;118162;-87
2022/06/05 01:07:26;;;;;;;8.48;7.82;;;22.00;56.50;;;;;;20494;6862;284073;-90
2022/06/05 01:09:52;;;;;;;8.60;8.10;;;22.10;56.30;;;;;;20486;6862;290197;-87
2022/06/05 01:12:35;;;;;;;8.23;7.83;;;22.30;55.80;;;;;;20491;6862;280086;-86
2022/06/05 01:15:20;;;;;;;8.03;7.43;;;22.50;55.30;;;;;;20691;6862;118153;-88
2022/06/05 01:18:09;;;;;;;8.20;7.70;;;22.30;55.70;;;;;;20478;6862;308783;-87
2022/06/05 01:20:38;;;;;;;8.38;7.87;;;22.30;55.60;;;;;;20476;6862;308834;-87
2022/06/05 01:23:10;;;;;;;7.80;7.40;;;22.50;55.20;;;;;;20702;6862;118633;-87
2022/06/05 01:25:39;;;;;;;9.20;8.60;;;22.30;55.50;;;;;;20546;6862;117503;-88
2022/06/05 01:28:04;;;;;;;9.67;9.03;;;22.00;56.10;;;;;;20461;6862;284592;-87
2022/06/05 01:30:30;;;;;;;9.43;8.82;;;22.00;56.00;;;;;;20459;6860;292203;-87
2022/06/05 01:33:02;;;;;;;8.90;8.40;;;22.30;55.80;;;;;;20685;6862;117423;-88
2022/06/05 01:36:01;;;;;;;9.13;8.63;;;22.10;56.00;;;;;;20399;6862;281894;-87
2022/06/05 01:38:35;;;;;;;9.70;9.00;;;22.10;56.00;;;;;;20467;6862;337519;-89
2022/06/05 01:41:00;;;;;;;8.97;8.37;;;22.40;56.00;;;;;;20687;6862;117728;-87
2022/06/05 01:43:27;;;;;;;9.93;9.33;;;22.20;56.10;;;;;;20483;6862;280643;-89
2022/06/05 01:46:06;;;;;;;9.87;9.23;;;22.20;56.10;;;;;;20466;6862;310119;-87
2022/06/05 01:48:34;;;;;;;9.93;9.43;;;22.40;55.80;;;;;;20471;6862;309109;-88
2022/06/05 01:51:00;;;;;;;9.20;8.80;;;22.50;55.60;;;;;;20531;6862;310308;-91
2022/06/05 01:53:35;;;;;;;9.20;8.70;;;22.60;55.40;;;;;;20743;6862;116949;-90
2022/06/05 01:56:07;;;;;;;10.07;9.47;;;22.40;55.80;;;;;;20743;6862;69924;-89
2022/06/05 01:58:36;;;;;;;9.63;9.07;;;22.00;56.60;;;;;;20669;6862;117971;-88
2022/06/05 02:01:03;;;;;;;9.33;8.70;;;21.70;58.00;;;;;;20697;6862;118493;-88
2022/06/05 02:03:28;;;;;;;9.63;8.93;;;21.50;57.90;;;;;;20688;6862;117954;-87
2022/06/05 02:05:55;;;;;;;10.23;9.50;;;21.50;58.50;;;;;;20479;6862;310882;-88
2022/06/05 02:08:38;;;;;;;9.23;8.63;;;21.50;58.40;;;;;;20687;6862;118630;-87
2022/06/05 02:11:04;;;;;;;10.40;9.70;;;21.60;58.40;;;;;;20563;6862;118137;-87
2022/06/05 02:13:29;;;;;;;9.70;8.97;;;21.40;58.80;;;;;;20681;6862;117716;-90
2022/06/05 02:15:55;;;;;;;9.43;8.83;;;21.20;59.20;;;;;;20697;6862;117355;-87
2022/06/05 02:18:20;;;;;;;9.98;9.38;;;21.10;59.50;;;;;;20490;6862;281904;-90
2022/06/05 02:20:46;;;;;;;9.60;9.10;;;21.40;59.10;;;;;;20680;6862;119901;-87
2022/06/05 02:23:18;;;;;;;9.82;9.07;;;21.40;58.80;;;;;;20479;6862;311952;-88
2022/06/05 02:25:44;;;;;;;9.13;8.60;;;21.60;58.50;;;;;;20695;6862;117282;-88
2022/06/05 02:28:13;;;;;;;9.67;9.07;;;21.50;58.50;;;;;;20702;6862;117277;-89
2022/06/05 02:31:08;;;;;;;10.00;9.47;;;21.30;58.90;;;;;;20460;6862;309643;-89
2022/06/05 02:33:44;;;;;;;10.68;9.90;;;21.50;58.60;;;;;;20493;6862;339696;-89
2022/06/05 02:36:14;;;;;;;9.83;8.97;;;21.70;57.90;;;;;;20698;6862;117471;-89
2022/06/05 02:39:00;;;;;;;10.10;9.40;;;21.70;57.90;;;;;;20687;6862;117502;-87
2022/06/05 02:41:41;;;;;;;10.33;9.73;;;21.50;58.50;;;;;;20461;6860;309765;-90
2022/06/05 02:44:31;;;;;;;9.80;9.07;;;21.60;58.50;;;;;;20469;6862;117683;-87
2022/06/05 02:47:13;;;;;;;10.18;9.57;;;21.70;58.60;;;;;;20472;6862;341622;-89
2022/06/05 02:49:46;;;;;;;10.53;9.83;;;21.70;57.90;;;;;;20493;6862;309556;-89
2022/06/05 02:52:12;;;;;;;11.15;10.45;;;22.20;56.80;;;;;;20477;6862;279753;-87
2022/06/05 02:54:41;;;;;;;11.40;10.50;;;22.20;56.80;;;;;;20468;6862;309499;-90
2022/06/05 02:57:06;;;;;;;10.87;10.00;;;22.30;56.30;;;;;;20656;6862;119895;-87
2022/06/05 02:59:32;;;;;;;11.57;10.83;;;22.10;56.80;;;;;;20478;6862;309573;-89
2022/06/05 03:04:43;;;;;;;11.10;10.47;;;22.20;56.80;;;;;;20471;6862;282634;-87
2022/06/05 03:07:09;;;;;;;11.18;10.57;;;22.30;56.50;;;;;;20484;6862;311491;-88
2022/06/05 03:09:34;;;;;;;11.25;10.65;;;22.40;56.20;;;;;;20485;6862;295753;-87
2022/06/05 03:12:01;;;;;;;10.40;9.70;;;22.50;56.00;;;;;;20697;6862;118141;-87
2022/06/05 03:14:26;;;;;;;10.23;9.63;;;22.20;56.50;;;;;;20660;6862;123040;-88
2022/06/05 03:16:52;;;;;;;10.63;9.80;;;21.80;57.30;;;;;;20697;6862;119745;-90
2022/06/05 03:19:20;;;;;;;10.77;10.18;;;21.50;58.10;;;;;;20487;6862;306949;-87
2022/06/05 03:21:47;;;;;;;11.00;10.40;;;21.60;58.00;;;;;;20486;6862;280604;-88
2022/06/05 03:24:14;;;;;;;10.50;9.80;;;21.90;57.40;;;;;;20700;6862;118150;-88
2022/06/05 03:26:39;;;;;;;10.70;9.97;;;21.80;57.50;;;;;;20672;6862;128154;-89
2022/06/05 03:29:07;;;;;;;11.00;10.20;;;21.60;58.10;;;;;;20484;6862;279992;-88
2022/06/05 03:31:29;;;;;;;10.83;10.13;;;21.60;57.90;;;;;;20476;6862;339313;-87
2022/06/05 03:33:55;;;;;;;10.63;10.03;;;21.90;57.40;;;;;;20491;6862;299249;-89
2022/06/05 03:36:20;;;;;;;10.00;9.50;;;22.10;56.80;;;;;;20702;6862;119529;-87
2022/06/05 03:38:47;;;;;;;9.97;9.17;;;21.60;57.90;;;;;;20682;6862;122879;-88
2022/06/05 03:41:17;;;;;;;9.93;9.32;;;21.60;57.70;;;;;;20491;6862;293540;-87
2022/06/05 03:43:42;;;;;;;10.57;9.97;;;21.70;57.60;;;;;;20491;6862;283233;-87
2022/06/05 03:46:08;;;;;;;10.03;9.43;;;22.00;57.10;;;;;;20475;6862;309617;-89
2022/06/05 03:48:33;;;;;;;10.45;9.82;;;22.20;56.50;;;;;;20460;6862;310151;-87
2022/06/05 03:50:59;;;;;;;10.23;9.67;;;22.30;56.00;;;;;;20496;6862;309291;-87
2022/06/05 03:53:24;;;;;;;9.52;9.02;;;22.50;55.70;;;;;;20480;6861;281539;-88
2022/06/05 03:55:50;;;;;;;9.00;8.55;;;22.60;55.40;;;;;;20489;6862;338626;-88
2022/06/05 03:58:15;;;;;;;9.33;8.80;;;22.70;55.10;;;;;;20487;6862;325267;-87
2022/06/05 04:00:44;;;;;;;9.00;8.50;;;22.70;54.60;;;;;;20463;6862;310055;-87
2022/06/05 04:03:11;;;;;;;9.20;8.60;;;22.80;54.40;;;;;;20492;6862;341704;-87
2022/06/05 04:05:37;;;;;;;9.00;8.50;;;22.90;54.50;;;;;;20699;6862;119485;-87
2022/06/05 04:08:03;;;;;;;9.53;9.03;;;22.50;55.10;;;;;;20490;6862;307446;-87
2022/06/05 04:10:29;;;;;;;9.20;8.70;;;22.50;55.10;;;;;;20472;6862;309268;-89
2022/06/05 04:12:54;;;;;;;9.63;9.02;;;22.60;55.00;;;;;;20487;6862;338929;-87
2022/06/05 04:15:20;;;;;;;9.55;8.85;;;22.70;54.70;;;;;;20490;6862;279292;-87
2022/06/05 04:17:45;;;;;;;8.98;8.48;;;22.80;54.60;;;;;;20489;6862;310908;-88
2022/06/05 04:20:11;;;;;;;8.77;8.17;;;22.80;54.40;;;;;;20704;6862;122671;-86
2022/06/05 04:22:38;;;;;;;8.10;7.70;;;22.60;54.90;;;;;;20678;6862;120583;-87
2022/06/05 04:25:06;;;;;;;7.97;7.47;;;22.20;55.60;;;;;;20698;6862;118408;-88
2022/06/05 04:27:31;;;;;;;8.10;7.70;;;21.60;57.40;;;;;;20691;6862;117867;-89
2022/06/05 04:29:57;;;;;;;8.03;7.53;;;21.60;56.60;;;;;;20703;6862;119746;-87
2022/06/05 04:32:22;;;;;;;8.73;8.23;;;21.40;57.10;;;;;;20484;6862;341343;-86
2022/06/05 04:34:48;;;;;;;8.90;8.40;;;21.60;56.80;;;;;;20476;6862;280438;-87
2022/06/05 04:37:14;;;;;;;8.67;8.17;;;21.90;55.90;;;;;;20432;6862;309653;-88
2022/06/05 04:39:41;;;;;;;8.43;7.93;;;22.20;55.40;;;;;;20684;6862;117407;-87
2022/06/05 04:42:06;;;;;;;8.98;8.48;;;22.10;55.70;;;;;;20497;6862;280088;-87
2022/06/05 04:44:32;;;;;;;8.30;7.90;;;22.20;55.80;;;;;;20681;6862;117314;-87
2022/06/05 04:46:57;;;;;;;8.87;8.43;;;22.00;56.10;;;;;;20485;6862;282459;-86
2022/06/05 04:49:23;;;;;;;9.48;8.80;;;22.10;56.10;;;;;;20487;6862;309183;-89
2022/06/05 04:51:49;;;;;;;9.43;8.97;;;22.30;55.70;;;;;;20491;6862;280527;-88
2022/06/05 04:54:15;;;;;;;8.30;7.77;;;22.40;55.40;;;;;;20704;6862;121269;-87
2022/06/05 04:56:41;;;;;;;8.47;8.07;;;22.40;55.40;;;;;;20670;6862;117730;-89
2022/06/05 04:59:06;;;;;;;8.48;8.07;;;22.10;56.10;;;;;;20492;6862;341715;-86
2022/06/05 05:01:32;;;;;;;8.30;7.90;;;22.20;56.10;;;;;;20699;6862;118398;-86
2022/06/05 05:04:04;;;;;;;8.52;8.02;;;22.00;56.20;;;;;;20487;6861;282679;-88
2022/06/05 05:06:29;;;;;;;8.77;8.27;;;22.10;56.10;;;;;;20469;6862;279690;-88
2022/06/05 05:08:55;;;;;;;9.03;8.23;;;22.30;55.90;;;;;;20700;6862;118001;-87
2022/06/05 05:11:20;;;;;;;10.48;9.77;;;22.20;56.40;;;;;;20483;6862;309234;-86
2022/06/05 05:13:47;;;;;;;10.27;9.60;;;22.10;57.70;;;;;;20696;6862;117582;-88
2022/06/05 05:16:13;;;;;;;12.00;10.83;;;21.90;57.60;;;;;;20487;6862;282671;-87
2022/06/05 05:18:38;;;;;;;15.65;14.15;;;21.80;59.10;;;;;;20435;6862;309315;-90
2022/06/05 05:21:07;;;;;;;14.05;12.80;;;21.80;60.00;;;;;;20680;6862;117851;-87
2022/06/05 05:23:33;;;;;;;18.23;15.83;;;21.30;59.90;;;;;;20477;6862;310212;-86
2022/06/05 05:26:11;;;;;;;27.60;14.77;;;21.10;61.90;;;;;;20697;6862;118113;-87
2022/06/05 05:28:37;;;;;;;27.53;20.00;;;20.70;62.20;;;;;;20433;6862;324613;-87
2022/06/05 05:31:02;;;;;;;45.67;18.33;;;20.70;64.40;;;;;;20697;6862;117913;-90
2022/06/05 05:33:28;;;;;;;24.33;20.42;;;20.40;65.00;;;;;;20471;6862;310088;-87
2022/06/05 05:35:54;;;;;;;29.50;16.43;;;20.40;66.40;;;;;;20705;6862;117919;-87
2022/06/05 05:38:20;;;;;;;29.02;21.35;;;20.10;67.70;;;;;;20495;6862;279716;-86
2022/06/05 05:43:31;;;;;;;30.37;18.60;;;20.30;68.10;;;;;;20699;6862;120455;-86
2022/06/05 05:45:57;;;;;;;40.93;17.70;;;19.70;69.90;;;;;;20699;6862;118847;-87
2022/06/05 05:48:23;;;;;;;25.07;15.60;;;19.70;69.90;;;;;;20701;6862;121131;-86
2022/06/05 05:50:48;;;;;;;49.28;23.65;;;19.50;70.80;;;;;;20467;6862;281567;-86
2022/06/05 05:53:15;;;;;;;31.12;14.73;;;19.60;72.10;;;;;;20684;6862;118445;-89
2022/06/05 05:55:42;;;;;;;29.37;12.67;;;19.60;72.00;;;;;;20682;6862;117942;-89
2022/06/05 05:58:07;;;;;;;17.87;10.50;;;19.40;72.50;;;;;;20689;6862;117727;-87
2022/06/05 06:00:33;;;;;;;16.23;14.53;;;19.30;73.40;;;;;;20475;6862;281962;-89
2022/06/05 06:02:58;;;;;;;10.40;9.63;;;19.40;74.70;;;;;;20688;6862;118444;-87
2022/06/05 06:05:24;;;;;;;11.43;10.43;;;19.50;74.30;;;;;;20700;6862;120567;-88
2022/06/05 06:07:49;;;;;;;18.87;16.95;;;19.40;74.80;;;;;;20483;6862;309037;-88
2022/06/05 06:10:15;;;;;;;18.80;17.20;;;19.60;75.40;;;;;;20435;6862;283714;-88
2022/06/05 06:12:41;;;;;;;15.43;13.90;;;19.90;73.80;;;;;;20625;6862;129457;-89
2022/06/05 06:15:06;;;;;;;17.75;16.45;;;19.80;72.20;;;;;;20482;6860;304896;-88
2022/06/05 06:17:34;;;;;;;12.57;11.77;;;19.90;71.40;;;;;;20486;6861;340148;-88
2022/06/05 06:20:00;;;;;;;10.00;7.30;;;19.70;71.60;;;;;;20699;6862;118166;-87
2022/06/05 06:22:26;;;;;;;10.10;9.50;;;19.60;71.50;;;;;;20475;6862;296688;-85
2022/06/05 06:24:52;;;;;;;5.85;5.55;;;19.60;72.60;;;;;;20752;6862;116725;-89
2022/06/05 06:27:17;;;;;;;5.22;5.00;;;19.40;72.30;;;;;;20494;6862;280094;-85
2022/06/05 06:29:42;;;;;;;4.70;4.40;;;19.40;72.40;;;;;;20702;6862;121818;-85
2022/06/05 06:32:08;;;;;;;4.30;4.00;;;19.20;72.70;;;;;;20482;6862;309574;-86
2022/06/05 06:34:33;;;;;;;4.50;4.20;;;19.20;73.10;;;;;;20688;6862;117582;-85
2022/06/05 06:36:59;;;;;;;5.30;5.00;;;19.10;73.00;;;;;;20483;6862;312266;-85
2022/06/05 06:39:25;;;;;;;5.60;5.27;;;19.10;73.60;;;;;;20482;6862;310584;-87
2022/06/05 06:41:50;;;;;;;5.00;4.68;;;19.30;73.10;;;;;;20485;6862;279556;-87
2022/06/05 06:44:16;;;;;;;4.80;4.43;;;19.60;71.70;;;;;;20479;6862;310043;-88
2022/06/05 06:46:42;;;;;;;3.70;3.50;;;19.50;71.10;;;;;;20673;6862;156016;-87
2022/06/05 06:49:07;;;;;;;4.07;3.87;;;19.30;71.20;;;;;;20480;6862;309606;-87
2022/06/05 06:51:33;;;;;;;2.83;2.63;;;19.30;72.00;;;;;;20692;6862;117842;-87
2022/06/05 06:53:59;;;;;;;3.93;2.47;;;19.00;71.50;;;;;;20699;6862;117298;-87
2022/06/05 06:56:24;;;;;;;3.03;2.83;;;18.70;72.50;;;;;;20671;6862;117780;-85
2022/06/05 06:58:50;;;;;;;5.45;3.35;;;18.40;73.70;;;;;;20485;6862;279506;-87
2022/06/05 07:01:16;;;;;;;4.05;3.75;;;18.70;74.60;;;;;;20487;6862;280321;-85
2022/06/05 07:03:41;;;;;;;3.95;3.65;;;18.60;73.90;;;;;;20497;6862;280001;-85
2022/06/05 07:06:07;;;;;;;3.50;3.20;;;18.90;74.60;;;;;;20496;6862;299131;-85
2022/06/05 07:08:33;;;;;;;3.30;3.00;;;19.10;73.50;;;;;;20462;6862;295406;-85
2022/06/05 07:10:58;;;;;;;3.07;2.87;;;19.20;71.90;;;;;;20708;6862;119625;-85
2022/06/05 07:13:24;;;;;;;3.22;3.03;;;19.00;72.10;;;;;;20495;6862;310786;-84
2022/06/05 07:15:51;;;;;;;4.70;3.23;;;19.00;73.40;;;;;;20712;6862;117648;-85
2022/06/05 07:18:16;;;;;;;3.70;3.40;;;18.90;74.20;;;;;;20498;6862;309267;-85
2022/06/05 07:20:42;;;;;;;3.60;3.30;;;19.00;74.60;;;;;;20478;6862;279377;-85
2022/06/05 07:23:07;;;;;;;3.55;3.25;;;19.30;73.40;;;;;;20706;6862;118641;-85
2022/06/05 07:25:33;;;;;;;4.22;3.30;;;19.20;73.90;;;;;;20486;6862;279620;-86
2022/06/05 07:27:58;;;;;;;3.50;2.80;;;19.30;74.70;;;;;;20703;6860;117252;-86
2022/06/05 07:30:25;;;;;;;3.50;3.25;;;19.40;74.40;;;;;;20479;6862;279401;-86
2022/06/05 07:32:50;;;;;;;3.93;2.70;;;19.40;74.40;;;;;;20706;6862;117530;-85
2022/06/05 07:35:16;;;;;;;2.90;2.70;;;19.40;74.40;;;;;;20705;6862;123761;-86
2022/06/05 07:37:41;;;;;;;3.50;3.17;;;19.30;75.00;;;;;;20492;6862;279498;-86
2022/06/05 07:40:07;;;;;;;2.67;2.27;;;19.40;74.90;;;;;;20709;6862;117375;-86
2022/06/05 07:42:39;;;;;;;3.42;3.12;;;19.40;74.20;;;;;;20465;6862;339293;-85
2022/06/05 07:45:05;;;;;;;2.73;2.53;;;19.60;75.00;;;;;;20695;6862;120300;-86
2022/06/05 07:47:31;;;;;;;2.80;2.70;;;19.50;75.60;;;;;;20696;6862;119590;-86
2022/06/05 07:49:57;;;;;;;2.87;2.67;;;19.50;75.50;;;;;;20699;6862;117345;-86
2022/06/05 07:55:08;;;;;;;3.37;2.70;;;19.50;77.80;;;;;;20524;6862;337945;-85
2022/06/05 07:57:33;;;;;;;2.60;2.50;;;19.80;75.50;;;;;;20750;6862;117269;-85
2022/06/05 08:00:00;;;;;;;3.77;3.30;;;19.90;74.50;;;;;;20534;6862;311723;-86
2022/06/05 08:02:26;;;;;;;2.87;2.67;;;20.20;74.60;;;;;;20718;6862;119492;-85
2022/06/05 08:04:51;;;;;;;4.75;3.17;;;20.30;74.60;;;;;;20517;6862;312871;-86
2022/06/05 08:07:17;;;;;;;3.10;2.65;;;20.50;73.90;;;;;;20726;6862;117576;-85
2022/06/05 08:09:44;;;;;;;3.83;2.80;;;20.60;73.90;;;;;;20738;6862;117401;-86
2022/06/05 08:12:10;;;;;;;3.83;3.10;;;20.50;75.60;;;;;;20740;6862;121712;-86
2022/06/05 08:14:35;;;;;;;3.23;2.90;;;20.50;75.60;;;;;;20722;6862;118106;-85
2022/06/05 08:17:05;;;;;;;4.97;3.27;;;20.50;76.30;;;;;;20542;6862;334100;-86
2022/06/05 08:19:31;;;;;;;3.20;3.00;;;20.80;77.10;;;;;;20520;6862;335634;-87
2022/06/05 08:21:56;;;;;;;3.13;2.83;;;21.30;74.20;;;;;;20524;6862;337236;-86
2022/06/05 08:24:22;;;;;;;2.90;2.70;;;21.70;70.90;;;;;;20481;6862;309520;-87
2022/06/05 08:26:48;;;;;;;2.77;2.67;;;22.10;70.80;;;;;;20675;6862;117812;-87
2022/06/05 08:29:13;;;;;;;2.50;2.33;;;22.20;70.80;;;;;;20466;6862;313038;-86
2022/06/05 08:31:40;;;;;;;3.60;2.27;;;22.30;68.30;;;;;;20695;6862;117810;-86
2022/06/05 08:34:05;;;;;;;2.90;2.70;;;22.30;69.20;;;;;;20488;6862;309361;-86
2022/06/05 08:36:31;;;;;;;2.57;2.37;;;22.60;70.60;;;;;;20684;6862;117865;-87
2022/06/05 08:41:51;;;;;;;2.00;1.90;;;23.00;70.90;;;;;;20698;6862;117406;-86
2022/06/05 08:44:40;;;;;;;1.60;1.50;;;23.30;70.50;;;;;;20490;6862;338409;-86
2022/06/05 08:47:22;;;;;;;1.50;1.20;;;23.50;65.30;;;;;;20689;6862;120569;-86
2022/06/05 08:49:48;;;;;;;5.00;1.27;;;23.60;64.70;;;;;;20688;6862;121138;-86
2022/06/05 08:52:33;;;;;;;1.37;1.27;;;23.60;65.80;;;;;;20465;6862;341292;-86
2022/06/05 08:55:05;;;;;;;3.43;1.40;;;23.90;62.30;;;;;;20703;6862;117889;-88
2022/06/05 08:57:35;;;;;;;1.30;1.20;;;24.60;58.20;;;;;;20480;6862;338427;-87
2022/06/05 09:00:07;;;;;;;1.13;0.87;;;24.60;58.10;;;;;;20682;6862;116380;-88
2022/06/05 09:02:42;;;;;;;1.67;1.23;;;24.70;58.70;;;;;;20667;6862;120385;-89
2022/06/05 09:05:12;;;;;;;1.40;1.30;;;24.80;56.50;;;;;;20471;6862;310042;-89
2022/06/05 09:07:40;;;;;;;2.10;1.10;;;24.80;56.20;;;;;;20465;6862;291584;-89
2022/06/05 09:10:06;;;;;;;1.20;1.20;;;25.20;56.60;;;;;;20680;6862;119378;-89
2022/06/05 09:12:38;;;;;;;1.73;1.40;;;25.20;57.80;;;;;;20651;6862;117909;-90
2022/06/05 09:15:04;;;;;;;1.93;1.47;;;25.20;58.40;;;;;;20687;6862;118060;-91
2022/06/05 09:17:29;;;;;;;1.60;1.40;;;25.00;58.90;;;;;;20455;6862;309085;-90
2022/06/05 09:19:55;;;;;;;1.90;1.50;;;25.20;58.30;;;;;;20497;6862;309688;-89
2022/06/05 09:22:34;;;;;;;2.43;1.73;;;25.60;55.80;;;;;;20696;6862;121823;-90
2022/06/05 09:25:21;;;;;;;2.13;1.57;;;25.70;56.30;;;;;;20616;6862;117629;-89
2022/06/05 09:27:45;;;;;;;2.17;1.70;;;25.60;57.10;;;;;;20473;6862;312043;-89
2022/06/05 09:30:20;;;;;;;2.73;1.70;;;25.80;55.10;;;;;;20458;6862;281254;-90
2022/06/05 09:32:49;;;;;;;2.30;1.80;;;26.00;53.70;;;;;;20676;6862;119921;-88
2022/06/05 09:35:14;;;;;;;3.17;2.00;;;25.80;54.90;;;;;;20655;6862;118300;-90
2022/06/05 09:37:40;;;;;;;2.43;2.23;;;25.50;56.00;;;;;;20333;6862;323838;-92
2022/06/05 09:40:19;;;;;;;3.17;2.20;;;25.40;55.30;;;;;;20439;6862;300931;-91
2022/06/05 09:43:04;;;;;;;3.73;2.17;;;25.50;55.10;;;;;;20671;6862;121804;-90
2022/06/05 09:45:39;;;;;;;3.10;2.60;;;25.30;56.00;;;;;;20481;6862;338434;-89
2022/06/05 09:48:04;;;;;;;3.13;2.60;;;25.30;56.30;;;;;;20692;6862;117966;-89
2022/06/05 09:50:32;;;;;;;2.80;2.60;;;25.20;57.80;;;;;;20452;6860;342746;-89
2022/06/05 09:52:58;;;;;;;3.10;2.83;;;25.20;58.90;;;;;;20496;6862;281035;-89
2022/06/05 09:55:30;;;;;;;3.72;3.10;;;25.40;59.20;;;;;;20488;6862;339196;-89
2022/06/05 09:58:25;;;;;;;3.80;3.00;;;25.60;59.60;;;;;;19959;6862;121847;-88
2022/06/05 10:00:54;;;;;;;4.15;3.75;;;25.40;59.70;;;;;;20486;6862;339617;-90
2022/06/05 10:03:23;;;;;;;4.40;3.70;;;25.40;60.00;;;;;;20693;6862;118731;-89
2022/06/05 10:05:48;;;;;;;4.20;3.57;;;25.20;60.50;;;;;;20690;6862;118692;-88
2022/06/05 10:08:21;;;;;;;4.75;3.50;;;24.80;61.10;;;;;;20402;6862;324775;-89
2022/06/05 10:10:47;;;;;;;3.80;3.40;;;24.80;61.10;;;;;;20459;6862;279995;-89
2022/06/05 10:13:15;;;;;;;4.40;3.72;;;24.90;60.30;;;;;;20483;6862;282046;-89
2022/06/05 10:15:41;;;;;;;4.20;3.80;;;25.00;60.40;;;;;;20467;6862;280893;-89
2022/06/05 10:18:20;;;;;;;4.20;3.70;;;25.20;60.30;;;;;;20679;6862;117926;-89
2022/06/05 10:21:06;;;;;;;4.00;3.70;;;25.00;60.90;;;;;;20416;6862;328795;-92
2022/06/05 10:23:54;;;;;;;4.40;4.00;;;24.90;60.40;;;;;;20641;6862;117903;-90
2022/06/05 10:26:20;;;;;;;7.77;4.50;;;24.70;61.30;;;;;;20690;6862;117855;-88
2022/06/05 10:28:45;;;;;;;4.70;4.20;;;24.30;62.40;;;;;;20653;6862;127237;-90
2022/06/05 10:31:14;;;;;;;5.00;4.60;;;24.00;63.30;;;;;;20476;6862;303728;-89
2022/06/05 10:33:46;;;;;;;5.03;4.30;;;24.00;64.00;;;;;;20546;6862;122414;-91
2022/06/05 10:36:15;;;;;;;8.07;4.90;;;23.90;64.00;;;;;;20490;6862;280653;-91
2022/06/05 10:39:00;;;;;;;5.60;4.97;;;23.90;63.70;;;;;;20467;6862;310070;-91
2022/06/05 10:41:35;;;;;;;4.30;3.93;;;24.00;63.40;;;;;;20699;6862;118531;-90
2022/06/05 10:44:04;;;;;;;6.20;4.70;;;23.70;63.10;;;;;;20491;6862;279044;-89
2022/06/05 10:46:30;;;;;;;5.20;4.72;;;23.50;62.90;;;;;;20418;6862;309434;-89
2022/06/05 10:48:59;;;;;;;5.53;4.70;;;23.50;63.20;;;;;;20482;6862;280047;-89
2022/06/05 10:51:28;;;;;;;4.62;4.22;;;23.50;63.20;;;;;;20470;6862;309557;-89
2022/06/05 10:53:56;;;;;;;5.90;3.80;;;23.40;63.30;;;;;;20478;6862;280032;-89
2022/06/05 10:56:32;;;;;;;3.87;3.40;;;23.40;61.10;;;;;;20461;6862;339350;-88
2022/06/05 10:59:17;;;;;;;4.10;3.70;;;23.30;61.00;;;;;;20473;6862;297883;-88
2022/06/05 11:02:03;;;;;;;3.60;3.30;;;23.10;60.50;;;;;;20687;6861;118025;-87
2022/06/05 11:04:51;;;;;;;3.77;3.47;;;22.60;62.10;;;;;;20458;6862;311620;-89
2022/06/05 11:07:47;;;;;;;4.40;3.60;;;22.50;63.90;;;;;;20462;6862;324944;-89
2022/06/05 11:10:16;;;;;;;4.30;3.90;;;22.50;63.50;;;;;;20488;6862;305898;-91
2022/06/05 11:15:52;;;;;;;5.23;3.97;;;22.30;63.50;;;;;;20680;6862;119443;-88
2022/06/05 11:18:19;;;;;;;7.57;4.00;;;21.80;65.30;;;;;;20400;6862;309560;-90
2022/06/05 11:20:44;;;;;;;4.47;3.60;;;21.90;65.50;;;;;;20626;6862;125874;-89
2022/06/05 11:23:13;;;;;;;5.17;4.10;;;21.70;65.30;;;;;;20448;6862;281596;-89
2022/06/05 11:25:59;;;;;;;5.67;4.00;;;21.70;67.40;;;;;;20453;6862;305301;-88
2022/06/05 11:28:44;;;;;;;3.60;3.30;;;21.80;68.30;;;;;;20676;6862;122533;-88
2022/06/05 11:31:13;;;;;;;4.20;3.80;;;21.70;69.20;;;;;;20341;6862;312554;-87
2022/06/05 11:33:52;;;;;;;4.33;3.40;;;21.80;71.60;;;;;;20685;6862;120483;-90
2022/06/05 11:36:24;;;;;;;4.00;3.10;;;21.90;71.70;;;;;;20471;6862;312054;-88
2022/06/05 11:39:19;;;;;;;3.20;2.80;;;22.10;68.30;;;;;;20684;6862;117970;-88
2022/06/05 11:42:04;;;;;;;3.42;3.12;;;22.20;68.00;;;;;;20463;6862;311920;-89
2022/06/05 11:44:51;;;;;;;3.57;3.17;;;22.50;65.90;;;;;;20662;6862;120675;-89
2022/06/05 11:47:32;;;;;;;4.47;3.60;;;22.50;65.40;;;;;;20477;6862;282712;-88
2022/06/05 11:50:05;;;;;;;2.87;2.57;;;23.10;66.80;;;;;;20327;6862;320886;-89
2022/06/05 11:52:38;;;;;;;2.57;2.40;;;23.10;66.70;;;;;;20670;6862;121875;-89
2022/06/05 11:55:16;;;;;;;2.55;2.45;;;23.20;66.60;;;;;;20456;6862;319378;-89
2022/06/05 11:58:01;;;;;;;2.43;2.23;;;23.40;62.30;;;;;;20677;6862;117399;-89
2022/06/05 12:00:47;;;;;;;3.80;2.90;;;23.50;62.50;;;;;;20458;6862;283787;-87
2022/06/05 12:03:42;;;;;;;3.12;2.80;;;23.80;61.80;;;;;;20487;6862;312255;-87
2022/06/05 12:06:11;;;;;;;3.17;2.90;;;24.20;60.70;;;;;;20481;6862;308763;-89
2022/06/05 12:08:37;;;;;;;3.25;2.90;;;24.50;60.20;;;;;;20455;6862;311363;-88
2022/06/05 12:11:07;;;;;;;3.30;3.00;;;24.70;58.90;;;;;;20680;6862;118865;-89
2022/06/05 12:13:33;;;;;;;2.67;2.47;;;24.60;59.80;;;;;;20688;6860;120397;-89
2022/06/05 12:16:01;;;;;;;3.42;3.10;;;24.30;60.90;;;;;;20479;6862;338464;-89
2022/06/05 12:18:30;;;;;;;4.07;3.77;;;24.30;60.80;;;;;;20491;6862;308585;-90
2022/06/05 12:20:56;;;;;;;3.53;3.27;;;24.50;60.60;;;;;;20555;6862;278461;-89
2022/06/05 12:23:37;;;;;;;3.72;3.42;;;24.70;59.50;;;;;;20486;6862;282855;-89
2022/06/05 12:26:06;;;;;;;4.43;3.43;;;24.90;58.80;;;;;;20689;6862;117274;-88
2022/06/05 12:28:35;;;;;;;3.67;3.30;;;24.70;59.40;;;;;;20380;6862;309471;-89
2022/06/05 12:31:14;;;;;;;3.27;3.07;;;24.70;59.40;;;;;;20682;6862;117777;-89
2022/06/05 12:34:03;;;;;;;3.53;2.80;;;24.70;60.00;;;;;;20654;6862;116566;-90
2022/06/05 12:37:05;;;;;;;3.33;2.97;;;24.60;60.70;;;;;;20441;6862;280806;-89
2022/06/05 12:39:31;;;;;;;4.33;3.27;;;24.80;59.40;;;;;;20452;6862;280848;-91
2022/06/05 12:42:02;;;;;;;3.20;3.00;;;25.30;58.80;;;;;;20469;6862;312507;-89
2022/06/05 12:44:32;;;;;;;3.20;3.00;;;25.80;57.20;;;;;;20464;6862;280172;-89
2022/06/05 12:47:24;;;;;;;3.40;3.10;;;25.80;57.20;;;;;;20474;6862;281629;-91
2022/06/05 12:49:56;;;;;;;3.20;2.90;;;25.90;57.00;;;;;;20417;6862;311661;-89
2022/06/05 12:52:42;;;;;;;3.40;2.53;;;26.00;56.50;;;;;;20689;6862;117611;-90
2022/06/05 12:55:16;;;;;;;2.77;2.57;;;25.80;57.20;;;;;;20692;6862;117634;-90
2022/06/05 12:57:45;;;;;;;2.92;2.72;;;25.50;58.00;;;;;;20484;6862;311427;-90
2022/06/05 13:00:30;;;;;;;4.57;2.80;;;25.50;57.80;;;;;;20477;6862;309664;-90
2022/06/05 13:03:09;;;;;;;2.57;2.30;;;25.70;57.00;;;;;;20666;6862;121510;-90